Time;durP1;ratioP1;P1;durP2;ratioP2;P2;SDS_P1;SDS_P2;PMS_P1;PMS_P2;Temp;Humidity;BMP_temperature;BMP_pressure;BME280_temperature;BME280_humidity;BME280_pressure;Samples;Min_cycle;Max_cycle;Signal;HPM_P1;HPM_P2
2022/05/24 00:01:50;;;;;;;11.32;6.43;;;13.00;93.80;;;;;;4854983;29;20043;-79
2022/05/24 00:04:20;;;;;;;10.90;6.45;;;12.90;94.00;;;;;;4871327;29;20041;-78
2022/05/24 00:06:49;;;;;;;11.70;6.80;;;12.80;94.00;;;;;;4875912;29;20048;-79
2022/05/24 00:09:35;;;;;;;13.13;6.75;;;12.90;93.90;;;;;;4876913;29;20037;-77
2022/05/24 00:12:04;;;;;;;10.15;7.45;;;12.90;94.10;;;;;;4878764;29;20167;-76
2022/05/24 00:17:20;;;;;;;9.85;6.90;;;12.90;94.10;;;;;;4885082;29;20051;-80
2022/05/24 00:19:49;;;;;;;12.48;6.57;;;13.00;94.20;;;;;;4869781;29;20764;-79
2022/05/24 00:22:17;;;;;;;13.20;6.35;;;12.90;94.00;;;;;;4868317;29;20135;-79
2022/05/24 00:24:49;;;;;;;9.88;5.68;;;12.90;94.10;;;;;;4869170;29;20127;-79
2022/05/24 00:27:20;;;;;;;14.60;6.07;;;12.90;93.90;;;;;;4869071;29;20059;-80
2022/05/24 00:29:48;;;;;;;10.68;5.70;;;12.90;93.80;;;;;;4868831;29;20045;-79
2022/05/24 00:32:19;;;;;;;11.20;5.10;;;13.10;93.90;;;;;;4877146;29;20469;-76
2022/05/24 00:35:12;;;;;;;12.60;5.50;;;12.80;93.80;;;;;;4878788;29;20045;-77
2022/05/24 00:37:50;;;;;;;11.23;5.95;;;12.70;93.90;;;;;;4870512;29;20052;-79
2022/05/24 00:40:45;;;;;;;10.13;5.53;;;12.60;94.10;;;;;;4884830;29;20465;-79
2022/05/24 00:43:38;;;;;;;8.48;5.55;;;12.70;94.30;;;;;;4869157;29;20041;-78
2022/05/24 00:46:36;;;;;;;12.05;6.20;;;12.50;94.10;;;;;;4868562;29;20037;-80
2022/05/24 00:49:22;;;;;;;9.85;6.13;;;12.40;94.40;;;;;;4854895;29;20131;-79
2022/05/24 00:52:28;;;;;;;9.40;7.05;;;12.30;94.50;;;;;;4869270;29;20113;-80
2022/05/24 00:55:11;;;;;;;10.27;6.80;;;12.30;95.00;;;;;;4868904;29;20107;-80
2022/05/24 00:58:37;;;;;;;8.68;5.80;;;12.30;94.90;;;;;;4868756;29;20127;-79
2022/05/24 01:01:23;;;;;;;10.18;6.43;;;12.40;94.90;;;;;;4818905;29;20055;-80
2022/05/24 01:03:51;;;;;;;8.80;5.85;;;12.40;95.10;;;;;;4884118;29;20477;-79
2022/05/24 01:06:20;;;;;;;11.90;6.93;;;12.40;95.00;;;;;;4866940;29;20033;-79
2022/05/24 01:08:46;;;;;;;10.25;6.28;;;12.40;95.10;;;;;;4867939;29;20041;-78
2022/05/24 01:11:16;;;;;;;9.90;6.13;;;12.40;94.90;;;;;;4868410;29;20049;-78
2022/05/24 01:13:42;;;;;;;12.55;6.55;;;12.40;94.80;;;;;;4868107;29;20044;-79
2022/05/24 01:16:11;;;;;;;12.55;6.43;;;12.60;94.90;;;;;;4868667;29;20048;-79
2022/05/24 01:18:40;;;;;;;13.35;6.95;;;12.50;94.70;;;;;;4867782;29;20040;-78
2022/05/24 01:21:14;;;;;;;12.52;6.25;;;12.50;94.70;;;;;;4868554;29;20358;-79
2022/05/24 01:24:00;;;;;;;11.40;6.65;;;12.60;94.90;;;;;;4868368;29;20045;-79
2022/05/24 01:26:49;;;;;;;7.78;5.88;;;12.60;95.00;;;;;;4868313;29;20123;-78
2022/05/24 01:29:16;;;;;;;11.00;6.28;;;12.60;94.80;;;;;;4867682;29;20072;-78
2022/05/24 01:37:20;;;;;;;14.38;8.52;;;12.60;95.30;;;;;;4883795;29;20443;-79
2022/05/24 01:39:56;;;;;;;16.10;9.13;;;12.60;95.20;;;;;;4868611;29;20415;-78
2022/05/24 01:42:25;;;;;;;18.40;10.40;;;12.70;95.20;;;;;;4865374;29;20117;-78
2022/05/24 01:45:18;;;;;;;14.23;9.45;;;12.70;95.10;;;;;;4853114;29;20051;-79
2022/05/24 01:47:47;;;;;;;15.38;11.07;;;12.80;95.40;;;;;;4868095;29;20063;-78
2022/05/24 01:50:17;;;;;;;17.17;10.75;;;12.80;95.30;;;;;;4867567;29;20135;-79
2022/05/24 01:52:54;;;;;;;17.85;11.73;;;12.80;95.20;;;;;;4867911;29;20032;-80
2022/05/24 01:55:39;;;;;;;22.88;13.48;;;12.80;95.50;;;;;;4867922;29;20037;-79
2022/05/24 01:58:10;;;;;;;24.02;13.05;;;12.90;95.90;;;;;;4867699;29;20075;-79
2022/05/24 02:00:43;;;;;;;27.00;14.93;;;12.90;96.10;;;;;;4868725;29;20362;-78
2022/05/24 02:03:14;;;;;;;24.08;14.32;;;12.90;95.90;;;;;;4869632;29;20048;-79
2022/05/24 02:05:58;;;;;;;29.42;15.88;;;12.90;96.20;;;;;;4875242;29;20100;-78
2022/05/24 02:08:25;;;;;;;29.23;15.85;;;12.90;96.30;;;;;;4878329;29;20095;-76
2022/05/24 02:11:01;;;;;;;30.75;16.45;;;12.90;96.20;;;;;;4875247;29;20367;-76
2022/05/24 02:13:45;;;;;;;25.42;15.43;;;13.00;96.20;;;;;;4870640;29;20055;-79
2022/05/24 02:16:23;;;;;;;29.25;15.13;;;12.90;95.90;;;;;;4867175;29;20075;-79
2022/05/24 02:18:52;;;;;;;31.02;17.58;;;13.00;95.80;;;;;;4867309;29;20044;-79
2022/05/24 02:21:21;;;;;;;28.92;16.15;;;13.10;95.80;;;;;;4867763;29;20453;-79
2022/05/24 02:23:50;;;;;;;;;;;13.20;96.10;;;;;;4867170;29;20477;-79
2022/05/24 02:26:24;;;;;;;28.02;16.60;;;13.00;96.30;;;;;;4867321;29;19915;-80
2022/05/24 02:28:53;;;;;;;36.35;18.33;;;13.00;96.00;;;;;;4867033;29;20052;-79
2022/05/24 02:31:25;;;;;;;34.33;18.33;;;13.10;96.20;;;;;;4882405;29;20128;-79
2022/05/24 02:33:53;;;;;;;34.90;19.35;;;13.10;96.30;;;;;;4867466;29;20048;-79
2022/05/24 02:36:26;;;;;;;37.15;21.38;;;13.10;96.00;;;;;;4867272;29;20529;-78
2022/05/24 02:39:07;;;;;;;31.13;19.45;;;13.10;96.40;;;;;;4866959;29;20043;-79
2022/05/24 02:41:42;;;;;;;37.70;21.48;;;13.20;95.90;;;;;;4867282;29;20096;-79
2022/05/24 02:44:11;;;;;;;37.15;23.60;;;13.10;95.80;;;;;;4865971;29;20277;-79
2022/05/24 02:46:40;;;;;;;35.97;23.85;;;13.10;95.90;;;;;;4866663;29;20101;-78
2022/05/24 02:49:10;;;;;;;40.85;23.30;;;13.10;96.00;;;;;;4866673;29;20045;-79
2022/05/24 02:51:40;;;;;;;32.90;23.35;;;13.20;96.10;;;;;;4866992;29;20048;-78
2022/05/24 02:54:08;;;;;;;43.33;25.20;;;13.10;95.70;;;;;;4867033;29;20045;-79
2022/05/24 02:56:37;;;;;;;38.63;26.90;;;13.20;95.80;;;;;;4865740;29;20041;-79
2022/05/24 02:59:13;;;;;;;36.88;25.77;;;13.20;96.00;;;;;;4866795;29;20036;-79
2022/05/24 03:01:42;;;;;;;36.25;24.73;;;13.20;95.80;;;;;;4866232;29;20083;-79
2022/05/24 03:04:08;;;;;;;31.08;22.90;;;13.20;95.70;;;;;;4866181;29;20132;-79
2022/05/24 03:09:33;;;;;;;;;;;13.20;95.60;;;;;;4867013;29;20053;-78
2022/05/24 03:09:35;;;;;;;29.98;19.85;;;13.20;95.70;;;;;;4880536;29;19915;-79
2022/05/24 03:15:02;;;;;;;28.25;15.52;;;13.20;95.40;;;;;;4881811;29;20040;-79
2022/05/24 03:17:31;;;;;;;29.60;15.38;;;13.20;95.40;;;;;;4881094;29;20458;-80
2022/05/24 03:20:00;;;;;;;24.63;13.07;;;13.20;95.50;;;;;;4866002;29;20103;-80
2022/05/24 03:22:26;;;;;;;30.70;14.85;;;13.20;95.60;;;;;;4866351;29;20076;-79
2022/05/24 03:25:05;;;;;;;24.00;13.65;;;13.20;95.90;;;;;;4866503;29;20041;-80
2022/05/24 03:27:31;;;;;;;23.02;14.38;;;13.20;95.60;;;;;;4865131;29;20037;-79
2022/05/24 03:30:09;;;;;;;26.27;13.82;;;13.60;95.80;;;;;;4866864;29;20036;-80
2022/05/24 03:32:38;;;;;;;24.42;13.48;;;13.20;95.80;;;;;;4866825;29;20075;-80
2022/05/24 03:35:05;;;;;;;23.83;12.82;;;13.20;95.80;;;;;;4865303;29;20052;-79
2022/05/24 03:37:33;;;;;;;27.50;13.90;;;13.20;96.00;;;;;;4866178;29;20100;-80
2022/05/24 03:39:59;;;;;;;30.73;14.30;;;13.20;96.10;;;;;;4868132;29;20048;-80
2022/05/24 03:42:25;;;;;;;25.55;13.85;;;13.10;95.90;;;;;;4871378;29;20036;-79
2022/05/24 03:44:50;;;;;;;32.78;13.95;;;13.10;95.90;;;;;;4871086;29;20044;-76
2022/05/24 03:47:16;;;;;;;28.58;12.57;;;13.10;95.90;;;;;;4875243;29;20466;-77
2022/05/24 03:49:42;;;;;;;24.60;12.93;;;13.30;95.60;;;;;;4873996;29;20047;-81
2022/05/24 03:52:11;;;;;;;25.35;12.45;;;13.10;95.80;;;;;;4866361;29;20044;-80
2022/05/24 03:54:37;;;;;;;21.58;10.65;;;13.10;95.90;;;;;;4865944;29;20087;-80
2022/05/24 03:59:47;;;;;;;18.35;7.88;;;13.10;95.50;;;;;;4881818;29;20427;-80
2022/05/24 04:02:16;;;;;;;15.10;7.63;;;13.10;95.60;;;;;;4880963;29;20048;-80
2022/05/24 04:04:42;;;;;;;20.60;7.75;;;13.10;95.50;;;;;;4866068;29;20041;-81
2022/05/24 04:07:09;;;;;;;15.68;6.50;;;13.00;95.40;;;;;;4865916;29;20066;-80
2022/05/24 04:09:35;;;;;;;;;;;13.00;95.20;;;;;;4866461;29;20088;-80
2022/05/24 04:12:01;;;;;;;20.20;7.07;;;13.00;95.30;;;;;;4865092;29;20368;-81
2022/05/24 04:14:33;;;;;;;12.38;7.28;;;12.90;95.20;;;;;;4865820;29;20092;-79
2022/05/24 04:16:59;;;;;;;18.33;7.95;;;12.90;95.20;;;;;;4865880;29;20133;-78
2022/05/24 04:19:25;;;;;;;;;;;12.90;95.20;;;;;;4866275;29;20368;-80
2022/05/24 04:21:51;;;;;;;14.98;8.07;;;12.90;95.40;;;;;;4881128;29;20010;-79
2022/05/24 04:24:17;;;;;;;;;;;12.90;95.70;;;;;;4866215;29;20127;-79
2022/05/24 04:26:43;;;;;;;17.67;8.02;;;12.90;95.80;;;;;;4866070;29;19994;-80
2022/05/24 04:29:12;;;;;;;16.33;8.73;;;12.90;95.40;;;;;;4881309;29;20054;-79
2022/05/24 04:31:38;;;;;;;13.07;7.20;;;12.90;95.40;;;;;;4865861;29;20139;-80
2022/05/24 04:34:05;;;;;;;15.38;8.43;;;12.90;95.10;;;;;;4865376;29;20385;-80
2022/05/24 04:36:31;;;;;;;15.65;8.18;;;12.90;95.20;;;;;;4865213;29;20083;-79
2022/05/24 04:38:57;;;;;;;16.90;8.93;;;12.80;95.20;;;;;;4868615;29;20092;-80
2022/05/24 04:44:11;;;;;;;17.83;9.82;;;12.90;95.30;;;;;;4884205;29;20045;-80
2022/05/24 04:49:28;;;;;;;21.92;10.85;;;12.80;95.50;;;;;;4871779;29;20072;-79
2022/05/24 04:51:54;;;;;;;16.02;9.98;;;12.90;95.40;;;;;;4868468;29;20081;-81
2022/05/24 04:54:23;;;;;;;15.70;9.88;;;12.90;95.50;;;;;;4869227;29;20043;-80
2022/05/24 04:56:49;;;;;;;16.38;10.38;;;12.90;95.60;;;;;;4868784;29;20044;-80
2022/05/24 04:59:16;;;;;;;19.05;10.93;;;12.90;95.50;;;;;;4853628;29;20048;-80
2022/05/24 05:01:42;;;;;;;22.73;11.10;;;12.90;95.40;;;;;;4868650;29;20092;-81
2022/05/24 05:04:09;;;;;;;23.48;11.80;;;13.00;95.70;;;;;;4868586;29;20481;-80
2022/05/24 05:06:42;;;;;;;;;;;13.00;95.60;;;;;;4868780;29;20056;-81
2022/05/24 05:09:09;;;;;;;16.45;11.43;;;13.00;95.50;;;;;;4868890;29;19919;-81
2022/05/24 05:11:38;;;;;;;21.42;11.18;;;13.00;95.30;;;;;;4868760;29;20127;-79
2022/05/24 05:14:07;;;;;;;21.73;11.50;;;13.10;95.20;;;;;;4872984;29;20041;-79
2022/05/24 05:16:33;;;;;;;22.48;12.25;;;13.10;95.20;;;;;;4877254;29;20127;-80
2022/05/24 05:19:04;;;;;;;25.23;13.75;;;13.20;95.20;;;;;;4874817;29;20043;-79
2022/05/24 05:21:38;;;;;;;28.20;15.07;;;13.20;95.50;;;;;;4875474;29;20079;-77
2022/05/24 05:24:08;;;;;;;19.05;13.02;;;13.40;95.60;;;;;;4889483;29;20127;-75
2022/05/24 05:26:34;;;;;;;20.33;12.90;;;13.40;95.50;;;;;;4871340;29;20399;-73
2022/05/24 05:29:00;;;;;;;23.13;13.57;;;13.50;95.30;;;;;;4883912;29;20044;-72
2022/05/24 05:31:29;;;;;;;21.05;13.07;;;13.50;95.20;;;;;;4883890;29;20348;-70
2022/05/24 05:33:59;;;;;;;29.85;13.95;;;13.60;95.10;;;;;;4883915;29;20041;-71
2022/05/24 05:36:27;;;;;;;25.80;14.02;;;13.60;95.30;;;;;;4868100;29;20430;-71
2022/05/24 05:38:54;;;;;;;25.30;14.32;;;13.70;95.20;;;;;;4883458;29;20044;-72
2022/05/24 05:41:25;;;;;;;27.13;13.75;;;13.70;95.10;;;;;;4899725;29;20514;-78
2022/05/24 05:43:55;;;;;;;29.42;14.15;;;13.70;95.20;;;;;;4867241;29;20047;-76
2022/05/24 05:46:29;;;;;;;35.30;16.60;;;13.80;95.30;;;;;;4868247;29;20131;-75
2022/05/24 05:50:06;;;;;;;31.08;15.48;;;13.80;95.20;;;;;;4866894;29;20104;-82
2022/05/24 05:52:57;;;;;;;26.88;16.17;;;13.70;95.20;;;;;;4861954;29;20371;-84
2022/05/24 05:55:25;;;;;;;33.58;16.48;;;13.70;95.30;;;;;;4899791;29;20389;-77
2022/05/24 05:57:51;;;;;;;33.20;16.08;;;13.80;95.20;;;;;;4882337;29;20037;-79
2022/05/24 06:00:24;;;;;;;30.52;13.90;;;13.70;95.30;;;;;;4882887;29;20045;-77
2022/05/24 06:02:53;;;;;;;29.23;13.85;;;13.70;95.40;;;;;;4867805;29;20104;-77
2022/05/24 06:05:22;;;;;;;28.27;13.68;;;13.90;95.50;;;;;;4867702;29;20048;-78
2022/05/24 06:07:50;;;;;;;28.55;11.88;;;13.70;95.30;;;;;;4866765;29;20056;-79
2022/05/24 06:10:18;;;;;;;28.33;11.32;;;13.70;95.30;;;;;;4852923;29;20056;-79
2022/05/24 06:12:44;;;;;;;29.33;10.93;;;13.70;94.90;;;;;;4867396;29;20063;-79
2022/05/24 06:15:13;;;;;;;23.23;9.00;;;13.60;94.90;;;;;;4882637;29;20478;-79
2022/05/24 06:17:48;;;;;;;20.33;7.15;;;13.70;95.10;;;;;;4882857;29;20040;-79
2022/05/24 06:20:22;;;;;;;17.67;7.30;;;13.60;95.10;;;;;;4883140;29;20059;-78
2022/05/24 06:22:49;;;;;;;17.73;7.07;;;13.60;95.10;;;;;;4867024;29;20049;-77
2022/05/24 06:25:21;;;;;;;14.35;6.65;;;13.60;95.10;;;;;;4867408;29;20071;-77
2022/05/24 06:28:06;;;;;;;18.88;5.95;;;13.70;94.80;;;;;;4867337;29;20045;-78
2022/05/24 06:31:34;;;;;;;15.05;6.40;;;13.80;94.60;;;;;;4867333;29;20049;-81
2022/05/24 06:34:26;;;;;;;12.38;5.60;;;13.80;94.60;;;;;;4861719;29;20044;-76
2022/05/24 06:36:55;;;;;;;12.27;5.25;;;13.90;94.20;;;;;;4876321;29;20588;-82
2022/05/24 06:39:23;;;;;;;12.57;5.38;;;14.00;94.30;;;;;;4851795;29;20484;-79
2022/05/24 06:41:51;;;;;;;13.50;5.35;;;14.00;94.00;;;;;;4866890;29;20096;-78
2022/05/24 06:44:17;;;;;;;13.88;5.40;;;14.00;94.00;;;;;;4866738;29;20092;-76
2022/05/24 06:46:42;;;;;;;13.60;5.70;;;14.10;93.80;;;;;;4882286;29;20032;-79
2022/05/24 06:49:09;;;;;;;12.75;4.95;;;14.10;93.90;;;;;;4867315;29;20138;-78
2022/05/24 06:51:35;;;;;;;18.00;5.93;;;14.20;93.60;;;;;;4885139;29;20037;-77
2022/05/24 06:54:01;;;;;;;13.15;4.93;;;14.20;93.40;;;;;;4869182;29;20492;-76
2022/05/24 06:56:27;;;;;;;13.93;5.60;;;14.30;93.30;;;;;;4887320;29;20131;-75
2022/05/24 07:04:21;;;;;;;17.73;6.50;;;14.30;93.00;;;;;;4882083;29;20123;-76
2022/05/24 07:06:47;;;;;;;12.68;5.60;;;14.40;93.10;;;;;;4882119;29;20080;-78
2022/05/24 07:09:12;;;;;;;13.75;6.00;;;14.40;92.80;;;;;;4866748;29;20092;-77
2022/05/24 07:11:38;;;;;;;18.08;5.38;;;14.40;92.50;;;;;;4866531;29;20488;-77
2022/05/24 07:14:04;;;;;;;13.13;5.43;;;14.40;92.10;;;;;;4882337;29;20051;-78
2022/05/24 07:16:29;;;;;;;11.80;5.88;;;14.40;92.40;;;;;;4866772;29;20044;-78
2022/05/24 07:18:55;;;;;;;17.23;5.68;;;14.40;92.40;;;;;;4882164;29;20041;-79
2022/05/24 07:21:21;;;;;;;16.17;6.38;;;14.40;92.40;;;;;;4882294;29;20533;-77
2022/05/24 07:23:46;;;;;;;12.85;5.10;;;14.40;92.20;;;;;;4866397;29;20036;-77
2022/05/24 07:26:16;;;;;;;13.68;5.72;;;14.50;92.10;;;;;;4866684;29;20056;-77
2022/05/24 07:28:41;;;;;;;16.10;6.13;;;14.50;92.30;;;;;;4865930;29;20044;-78
2022/05/24 07:31:08;;;;;;;16.33;6.30;;;14.60;91.80;;;;;;4881807;29;20394;-78
2022/05/24 07:33:34;;;;;;;15.57;6.90;;;14.60;92.10;;;;;;4881738;29;20476;-78
2022/05/24 07:36:04;;;;;;;11.82;5.70;;;14.60;92.10;;;;;;4866509;29;20430;-76
2022/05/24 07:38:30;;;;;;;12.07;4.88;;;14.70;91.90;;;;;;4881862;29;20036;-76
2022/05/24 07:46:25;;;;;;;15.52;5.22;;;14.80;90.70;;;;;;4881499;29;20140;-75
2022/05/24 07:48:50;;;;;;;8.77;4.57;;;14.90;91.10;;;;;;4865767;29;20093;-78
2022/05/24 07:51:16;;;;;;;8.80;4.97;;;15.10;90.70;;;;;;4866129;29;20048;-75
2022/05/24 07:53:42;;;;;;;8.88;4.10;;;15.40;90.60;;;;;;4866163;29;20047;-78
2022/05/24 07:56:08;;;;;;;9.73;4.20;;;15.50;88.00;;;;;;4881673;29;20051;-78
2022/05/24 07:58:34;;;;;;;10.82;4.32;;;15.50;88.90;;;;;;4898137;29;20045;-77
2022/05/24 08:01:00;;;;;;;10.57;5.03;;;15.40;88.00;;;;;;4866251;29;20041;-76
2022/05/24 08:03:26;;;;;;;;;;;15.30;88.50;;;;;;4866461;29;20135;-78
2022/05/24 08:05:51;;;;;;;10.13;4.35;;;15.10;87.60;;;;;;4866249;29;19919;-77
2022/05/24 08:08:17;;;;;;;10.95;4.20;;;15.00;88.80;;;;;;4865675;29;20057;-77
2022/05/24 08:10:49;;;;;;;10.13;4.53;;;15.00;88.80;;;;;;4866137;29;20168;-82
2022/05/24 08:13:19;;;;;;;10.85;4.57;;;14.90;88.60;;;;;;4868266;29;20051;-78
2022/05/24 08:15:46;;;;;;;9.27;4.20;;;15.00;89.10;;;;;;4869608;29;20044;-80
2022/05/24 08:18:12;;;;;;;8.88;4.45;;;15.00;88.10;;;;;;4869666;29;20120;-77
2022/05/24 08:20:43;;;;;;;10.13;5.07;;;15.00;88.70;;;;;;4869930;29;20338;-78
2022/05/24 08:23:09;;;;;;;11.00;4.75;;;15.00;88.40;;;;;;4869397;29;20040;-72
2022/05/24 08:25:35;;;;;;;12.13;5.13;;;15.00;88.10;;;;;;4884969;29;20537;-72
2022/05/24 08:28:02;;;;;;;10.68;5.40;;;14.80;89.50;;;;;;4869146;29;20040;-72
2022/05/24 08:30:30;;;;;;;16.35;6.20;;;14.70;89.90;;;;;;4885143;29;20052;-71
2022/05/24 08:32:56;;;;;;;12.43;5.40;;;14.50;90.20;;;;;;4870217;29;20131;-72
2022/05/24 08:35:23;;;;;;;10.60;5.82;;;14.40;91.20;;;;;;4885001;29;20041;-71
2022/05/24 08:37:49;;;;;;;9.02;6.32;;;14.30;90.80;;;;;;4869357;29;20041;-73
2022/05/24 08:40:16;;;;;;;;;;;14.10;91.20;;;;;;4885161;29;20083;-71
2022/05/24 08:43:01;;;;;;;14.80;6.93;;;14.00;92.10;;;;;;4884717;29;19919;-72
2022/05/24 08:48:41;;;;;;;12.48;6.82;;;14.00;91.30;;;;;;4884794;29;20140;-70
2022/05/24 08:51:28;;;;;;;12.35;6.80;;;14.00;91.80;;;;;;4901364;29;20052;-71
2022/05/24 08:54:16;;;;;;;11.60;7.10;;;14.00;91.80;;;;;;4869259;29;20140;-74
2022/05/24 08:56:50;;;;;;;10.77;6.22;;;13.90;91.90;;;;;;4856942;29;20093;-72
2022/05/24 08:59:29;;;;;;;13.95;7.28;;;14.00;91.90;;;;;;4901143;29;20052;-70
2022/05/24 09:01:56;;;;;;;8.15;6.20;;;14.10;91.80;;;;;;4884237;29;20051;-70
2022/05/24 09:04:23;;;;;;;10.55;4.95;;;14.20;92.10;;;;;;4884486;29;20541;-73
2022/05/24 09:06:51;;;;;;;12.65;5.85;;;14.40;91.90;;;;;;4884159;29;20148;-72
2022/05/24 09:09:33;;;;;;;9.07;4.60;;;14.50;91.40;;;;;;4884691;29;20061;-72
2022/05/24 09:12:17;;;;;;;9.77;4.45;;;14.80;91.30;;;;;;4868855;29;20469;-74
2022/05/24 09:14:48;;;;;;;10.85;4.75;;;15.10;91.80;;;;;;4900985;29;20044;-74
2022/05/24 09:17:20;;;;;;;10.85;4.22;;;15.40;90.90;;;;;;4868744;29;20049;-72
2022/05/24 09:19:45;;;;;;;8.40;4.07;;;15.40;89.90;;;;;;4884290;29;20055;-73
2022/05/24 09:22:11;;;;;;;10.23;4.00;;;15.40;89.50;;;;;;4868589;29;20037;-72
2022/05/24 09:24:49;;;;;;;9.95;4.45;;;15.30;88.50;;;;;;4867495;29;20045;-74
2022/05/24 09:27:22;;;;;;;8.32;3.85;;;15.30;87.00;;;;;;4883720;29;20103;-73
2022/05/24 09:29:54;;;;;;;10.50;4.88;;;15.30;88.30;;;;;;4883927;29;20080;-72
2022/05/24 09:32:22;;;;;;;8.70;3.97;;;15.40;88.70;;;;;;4883871;29;20144;-74
2022/05/24 09:35:04;;;;;;;12.43;4.25;;;15.50;86.70;;;;;;4883732;29;20050;-72
2022/05/24 09:37:30;;;;;;;9.65;4.43;;;15.70;86.20;;;;;;4868152;29;20059;-73
2022/05/24 09:40:09;;;;;;;8.60;4.03;;;15.80;87.00;;;;;;4868146;29;20041;-73
2022/05/24 09:42:36;;;;;;;11.15;4.45;;;16.00;86.20;;;;;;4867674;29;20036;-75
2022/05/24 09:45:12;;;;;;;28.05;5.60;;;15.90;84.80;;;;;;4868059;29;20355;-73
2022/05/24 09:47:43;;;;;;;24.33;5.85;;;15.30;86.70;;;;;;4867841;29;20048;-71
2022/05/24 09:50:18;;;;;;;8.82;4.35;;;14.50;90.00;;;;;;4883491;29;20135;-73
2022/05/24 09:53:10;;;;;;;7.72;3.28;;;14.00;90.20;;;;;;4868178;29;20101;-71
2022/05/24 09:55:43;;;;;;;4.90;2.25;;;13.70;91.40;;;;;;4860545;29;20056;-70
2022/05/24 09:58:20;;;;;;;2.63;2.10;;;13.70;91.80;;;;;;4900054;29;20189;-71
2022/05/24 10:00:57;;;;;;;4.05;2.20;;;13.70;92.40;;;;;;4883207;29;20056;-71
2022/05/24 10:03:31;;;;;;;;;;;13.80;92.40;;;;;;4900359;29;20041;-71
2022/05/24 10:06:08;;;;;;;7.25;3.33;;;13.90;92.70;;;;;;4899886;29;19927;-71
2022/05/24 10:08:41;;;;;;;8.07;4.05;;;14.00;92.60;;;;;;4882610;29;20052;-72
2022/05/24 10:11:17;;;;;;;9.32;3.88;;;14.10;92.70;;;;;;4867906;29;20103;-72
2022/05/24 10:14:19;;;;;;;8.65;4.53;;;14.20;92.90;;;;;;4883304;29;20131;-72
2022/05/24 10:17:09;;;;;;;10.93;6.47;;;14.20;92.70;;;;;;4882808;29;20053;-71
2022/05/24 10:20:05;;;;;;;10.40;7.20;;;14.20;92.80;;;;;;4867573;29;20470;-72
2022/05/24 10:22:44;;;;;;;13.07;7.60;;;14.20;92.90;;;;;;4867247;29;20076;-72
2022/05/24 10:25:17;;;;;;;13.35;7.53;;;14.20;92.70;;;;;;4867631;29;20377;-72
2022/05/24 10:28:20;;;;;;;13.48;4.90;;;14.20;92.20;;;;;;4883035;29;20040;-72
2022/05/24 10:31:05;;;;;;;4.75;2.03;;;14.10;91.10;;;;;;4882888;29;20052;-72
2022/05/24 10:39:18;;;;;;;5.50;1.67;;;14.30;91.10;;;;;;4899361;29;20057;-71
2022/05/24 10:41:54;;;;;;;6.00;1.87;;;14.50;91.40;;;;;;4882723;29;20355;-72
2022/05/24 10:44:55;;;;;;;4.40;1.70;;;14.70;91.10;;;;;;4882372;29;20349;-71
2022/05/24 10:47:52;;;;;;;5.43;2.45;;;14.80;90.10;;;;;;4882030;29;20500;-72
2022/05/24 10:50:44;;;;;;;3.83;1.98;;;15.10;90.80;;;;;;4882636;29;20115;-71
2022/05/24 10:53:18;;;;;;;8.02;2.30;;;15.40;90.40;;;;;;4882465;29;20128;-73
2022/05/24 10:56:21;;;;;;;4.95;2.10;;;15.50;86.70;;;;;;4882475;29;20044;-72
2022/05/24 10:58:48;;;;;;;10.27;2.67;;;15.40;86.50;;;;;;4862460;29;20045;-73
2022/05/24 11:01:25;;;;;;;7.80;3.80;;;15.60;86.90;;;;;;4848381;29;20060;-72
2022/05/24 11:03:58;;;;;;;7.40;1.90;;;15.60;89.10;;;;;;4893361;29;20048;-72
2022/05/24 11:06:37;;;;;;;11.02;3.80;;;15.40;86.40;;;;;;4882425;29;20135;-71
2022/05/24 11:09:09;;;;;;;10.65;2.38;;;15.10;86.50;;;;;;4863078;29;20053;-73
2022/05/24 11:11:57;;;;;;;7.20;2.13;;;14.80;90.20;;;;;;4863828;29;20148;-70
2022/05/24 11:14:42;;;;;;;7.55;2.10;;;14.70;90.30;;;;;;4863731;29;20180;-72
2022/05/24 11:17:11;;;;;;;6.18;2.30;;;14.50;89.60;;;;;;4863592;29;20049;-72
2022/05/24 11:19:41;;;;;;;8.82;2.50;;;14.50;89.60;;;;;;4878594;29;20045;-71
2022/05/24 11:22:22;;;;;;;7.75;3.15;;;14.70;90.50;;;;;;4863064;29;20426;-71
2022/05/24 11:25:06;;;;;;;8.50;2.63;;;14.80;89.70;;;;;;4863073;29;20093;-71
2022/05/24 11:27:36;;;;;;;13.32;2.15;;;15.00;87.10;;;;;;4862911;29;20037;-71
2022/05/24 11:30:16;;;;;;;6.97;2.25;;;15.20;87.40;;;;;;4879933;29;20415;-72
2022/05/24 11:32:52;;;;;;;6.05;1.70;;;15.30;86.10;;;;;;4863438;29;20374;-72
2022/05/24 11:35:18;;;;;;;5.60;1.50;;;15.60;86.10;;;;;;4879797;29;20052;-71
2022/05/24 11:37:50;;;;;;;6.37;2.30;;;15.70;83.50;;;;;;4863273;29;20289;-72
2022/05/24 11:43:50;;;;;;;7.55;2.80;;;15.40;82.70;;;;;;4879665;29;20123;-72
2022/05/24 11:46:34;;;;;;;11.43;4.22;;;15.20;83.00;;;;;;4847768;29;20499;-70
2022/05/24 11:49:31;;;;;;;11.73;4.47;;;15.10;83.00;;;;;;4879417;29;20128;-71
2022/05/24 11:51:58;;;;;;;13.88;4.20;;;15.10;83.40;;;;;;4862870;29;20104;-70
2022/05/24 11:54:24;;;;;;;9.80;3.38;;;15.00;86.70;;;;;;4879612;29;20051;-71
2022/05/24 11:57:03;;;;;;;10.87;2.27;;;15.10;85.70;;;;;;4863347;29;20403;-71
2022/05/24 11:59:43;;;;;;;10.30;2.58;;;15.30;84.80;;;;;;4879398;29;20777;-71
2022/05/24 12:02:21;;;;;;;6.80;1.85;;;15.50;83.50;;;;;;4879420;29;20547;-71
2022/05/24 12:08:26;;;;;;;4.68;1.33;;;16.20;79.70;;;;;;4824215;29;20056;-71
2022/05/24 12:11:06;;;;;;;6.07;1.58;;;16.60;76.00;;;;;;4862883;29;20140;-71
2022/05/24 12:13:48;;;;;;;6.20;1.85;;;16.60;81.00;;;;;;4862872;29;20057;-71
2022/05/24 12:16:43;;;;;;;9.18;1.90;;;16.40;78.60;;;;;;4847571;29;20477;-72
2022/05/24 12:19:43;;;;;;;7.78;1.90;;;16.00;77.30;;;;;;4862906;29;20425;-71
2022/05/24 12:22:14;;;;;;;8.27;1.98;;;15.70;80.70;;;;;;4847657;29;20048;-75
2022/05/24 12:24:40;;;;;;;9.27;2.00;;;15.40;81.80;;;;;;4847577;29;20052;-73
2022/05/24 12:27:19;;;;;;;6.57;1.88;;;15.20;82.10;;;;;;4862867;29;20049;-72
2022/05/24 12:29:57;;;;;;;8.32;1.67;;;15.10;81.70;;;;;;4862616;29;20060;-71
2022/05/24 12:32:25;;;;;;;10.40;2.20;;;15.20;82.10;;;;;;4862967;29;20049;-71
2022/05/24 12:34:51;;;;;;;12.18;2.70;;;15.40;81.50;;;;;;4862594;29;20037;-70
2022/05/24 12:37:25;;;;;;;8.88;2.50;;;15.60;81.80;;;;;;4862881;29;20525;-71
2022/05/24 12:40:24;;;;;;;7.93;2.10;;;15.90;83.10;;;;;;4862744;29;20522;-71
2022/05/24 12:42:53;;;;;;;7.00;3.13;;;16.10;77.40;;;;;;4862408;29;20438;-71
2022/05/24 12:45:41;;;;;;;6.85;2.70;;;16.00;78.00;;;;;;4862154;29;20088;-71
2022/05/24 12:48:22;;;;;;;;;;;16.00;79.10;;;;;;4862551;29;20049;-71
2022/05/24 12:50:48;;;;;;;6.78;2.60;;;15.90;79.10;;;;;;4862314;29;19920;-70
2022/05/24 12:53:21;;;;;;;7.40;3.05;;;15.80;79.40;;;;;;4861952;29;20669;-71
2022/05/24 12:56:03;;;;;;;6.93;2.60;;;15.80;77.90;;;;;;4862193;29;20053;-71
2022/05/24 12:58:38;;;;;;;8.80;3.25;;;15.70;78.90;;;;;;4879518;29;20629;-71
2022/05/24 13:01:31;;;;;;;14.60;3.42;;;15.70;79.10;;;;;;4865677;29;20073;-72
2022/05/24 13:04:19;;;;;;;9.00;2.58;;;15.90;79.10;;;;;;4865223;29;20080;-71
2022/05/24 13:06:46;;;;;;;6.65;2.95;;;15.90;76.70;;;;;;4865269;29;20041;-72
2022/05/24 13:09:29;;;;;;;8.35;3.13;;;16.10;78.70;;;;;;4850077;29;20056;-71
2022/05/24 13:12:08;;;;;;;4.38;2.35;;;16.20;76.70;;;;;;4881809;29;20045;-71
2022/05/24 13:14:40;;;;;;;7.68;2.45;;;16.20;79.00;;;;;;4882113;29;20049;-72
2022/05/24 13:17:10;;;;;;;6.25;2.15;;;16.50;79.80;;;;;;4865400;29;20502;-73
2022/05/24 13:20:09;;;;;;;4.57;2.15;;;16.70;76.70;;;;;;4834823;29;20045;-73
2022/05/24 13:22:55;;;;;;;11.07;2.00;;;16.90;73.70;;;;;;4881800;29;20427;-69
2022/05/24 13:25:42;;;;;;;9.18;2.08;;;17.30;72.30;;;;;;4865199;29;20045;-75
2022/05/24 13:28:08;;;;;;;5.80;2.08;;;17.70;73.90;;;;;;4865092;29;20108;-73
2022/05/24 13:33:34;;;;;;;7.35;1.75;;;17.60;71.90;;;;;;4881910;29;20140;-72
2022/05/24 13:36:25;;;;;;;4.28;1.98;;;17.50;71.00;;;;;;4865355;29;20431;-71
2022/05/24 13:39:02;;;;;;;7.45;2.63;;;17.20;72.50;;;;;;4849862;29;20140;-73
2022/05/24 13:41:38;;;;;;;9.48;4.50;;;17.00;72.00;;;;;;4865475;29;20142;-72
2022/05/24 13:44:09;;;;;;;5.63;2.50;;;16.90;70.50;;;;;;4865045;29;20051;-73
2022/05/24 13:46:55;;;;;;;7.70;2.00;;;17.10;70.40;;;;;;4849852;29;20056;-69
2022/05/24 13:49:38;;;;;;;6.47;2.70;;;17.00;71.60;;;;;;4881564;29;20054;-72
2022/05/24 14:10:41;;;;;;;11.85;4.65;;;16.30;72.60;;;;;;4788793;29;19967;-78
2022/05/24 14:13:08;;;;;;;8.98;3.95;;;16.60;76.60;;;;;;4852893;29;20116;-75
2022/05/24 14:15:39;;;;;;;8.25;4.07;;;17.10;75.00;;;;;;4866580;29;20077;-75
2022/05/24 14:18:06;;;;;;;8.75;2.95;;;17.50;73.90;;;;;;4850506;29;20037;-77
2022/05/24 14:20:31;;;;;;;;;;;17.80;72.20;;;;;;4864759;29;20120;-77
2022/05/24 14:23:26;;;;;;;6.43;2.70;;;17.70;70.30;;;;;;4849107;29;20349;-79